Flight Track Log - Related Links

Times and Time Zones

All times are in EDT time to prevent confusion due to time zone crossing. See the EJA396 flight status page for this flight to view local times or setup timezone preferences in your user account.

Time Position Orientation Groundspeed Altitude Reporting Facility
EDT Latitude Longitude Course Direction KTS MPH feet Rate Location/Type
Sat 06:47:22 PM 40.1194 -80.7047 220° Southwest 221 254 4,700  Level Cleveland Center
Sat 06:48:23 PM 40.0497 -80.7792 219° Southwest 267 307 9,000 2,927 Climbing Cleveland Center
Sat 06:49:25 PM 39.9814 -80.8431 216° Southwest 300 345 10,700 3,220 Climbing Cleveland Center
Sat 06:50:26 PM 39.9094 -80.9036 213° Southwest 308 354 15,600 4,537 Climbing Cleveland Center
Sat 06:51:28 PM 39.8425 -80.9606 213° Southwest 291 335 20,000 3,805 Climbing Cleveland Center
Sat 06:52:29 PM 39.7744 -81.0186 213° Southwest 295 339 23,400 3,268 Climbing Cleveland Center
Sat 06:53:31 PM 39.7036 -81.0792 213° Southwest 303 349 26,700 2,927 Climbing Cleveland Center
Sat 06:54:32 PM 39.6306 -81.1408 213° Southwest 312 359 29,400 1,623 Climbing Cleveland Center
Sat 06:55:33 PM 39.5461 -81.2131 213° Southwest 361 415 30,000 977 Climbing Cleveland Center
Sat 06:56:41 PM 39.4189 -81.3197 213° Southwest 441 507 31,500 1,488 Climbing Indianapolis Center
Sat 06:57:42 PM 39.3122 -81.4083 213° Southwest 454 522 33,200 1,659 Climbing Indianapolis Center
Sat 06:58:44 PM 39.2128 -81.5097 218° Southwest 462 532 34,900 1,366 Climbing Indianapolis Center
Sat 06:59:45 PM 39.1392 -81.6372 233° Southwest 446 513 36,000 541 Climbing Indianapolis Center
Sat 07:00:46 PM 39.0619 -81.7736 234° Southwest 470 541 36,000  Level Indianapolis Center
Sat 07:01:47 PM 38.9667 -81.9411 234° Southwest 487 560 36,000  Level Indianapolis Center
Sat 07:02:48 PM 38.8864 -82.0797 233° Southwest 487 560 36,000  Level Indianapolis Center
Sat 07:03:49 PM 38.8064 -82.2186 234° Southwest 488 562 36,000  Level Indianapolis Center
Sat 07:04:50 PM 38.7267 -82.3575 234° Southwest 486 559 36,000  Level Indianapolis Center
Sat 07:05:51 PM 38.6425 -82.5011 233° Southwest 482 555 36,000  Level Indianapolis Center
Sat 07:06:52 PM 38.5703 -82.6264 234° Southwest 443 510 36,000  Level Indianapolis Center
Sat 07:07:53 PM 38.4994 -82.7389 231° Southwest 412 474 36,000  Level Indianapolis Center
Sat 07:08:54 PM 38.4231 -82.8603 231° Southwest 434 499 36,000  Level Indianapolis Center
Sat 07:09:55 PM 38.3467 -82.9800 231° Southwest 436 502 36,000  Level Indianapolis Center
Sat 07:10:56 PM 38.2717 -83.0986 231° Southwest 432 497 36,000  Level Indianapolis Center
Sat 07:11:57 PM 38.1956 -83.2181 231° Southwest 433 498 36,000  Level Indianapolis Center
Sat 07:12:58 PM 38.1086 -83.3536 231° Southwest 426 490 36,000  Level Indianapolis Center
Sat 07:14:00 PM 38.0344 -83.4703 231° Southwest 425 489 36,000  Level Indianapolis Center
Sat 07:15:01 PM 37.9589 -83.5839 230° Southwest 421 484 36,000  Level Indianapolis Center
Sat 07:16:02 PM 37.8842 -83.6994 231° Southwest 424 488 36,000  Level Indianapolis Center
Sat 07:17:03 PM 37.8114 -83.8139 231° Southwest 420 483 36,000  Level Indianapolis Center
Sat 07:18:04 PM 37.7372 -83.9264 230° Southwest 418 481 36,000 -590 Level Indianapolis Center
Sat 07:19:05 PM 37.6628 -84.0400 230° Southwest 420 483 34,800 -1,623 Descending Indianapolis Center
Sat 07:20:06 PM 37.5911 -84.1506 231° Southwest 411 473 32,700 -1,377 Descending Indianapolis Center
Sat 07:21:07 PM 37.5197 -84.2586 230° Southwest 404 465 32,000 -347 Descending Indianapolis Center
Sat 07:22:07 PM 37.4456 -84.3694 230° Southwest 410 472 32,000  Level Indianapolis Center
Sat 07:23:08 PM 37.3608 -84.4975 230° Southwest 408 470 32,000 -197 Level Indianapolis Center
Sat 07:24:09 PM 37.2850 -84.6086 229° Southwest 416 479 31,600 -689 Descending Indianapolis Center
Sat 07:25:10 PM 37.2136 -84.7192 231° Southwest 411 473 30,600 -984 Descending Indianapolis Center
Sat 07:26:11 PM 37.1392 -84.8292 230° Southwest 413 475 29,600 -984 Descending Indianapolis Center
Sat 07:27:12 PM 37.0664 -84.9372 230° Southwest 408 470 28,600 -1,033 Descending Indianapolis Center
Sat 07:28:13 PM 36.9953 -85.0433 230° Southwest 403 464 27,500 -1,328 Descending Indianapolis Center
Sat 07:29:14 PM 36.9217 -85.1514 230° Southwest 407 468 25,900 -1,623 Descending Indianapolis Center
Sat 07:30:15 PM 36.8483 -85.2597 230° Southwest 408 470 24,200 -1,587 Descending Indianapolis Center
Sat 07:31:15 PM 36.7761 -85.3653 230° Southwest 403 464 22,700 -1,240 Descending Indianapolis Center
Sat 07:32:16 PM 36.7150 -85.4769 236° Southwest 395 455 21,700 -787 Descending Indianapolis Center
Sat 07:33:17 PM 36.6572 -85.5994 240° Southwest 408 470 21,100 -1,131 Descending Indianapolis Center
Sat 07:34:18 PM 36.6011 -85.7150 239° Southwest 391 450 19,400 -2,016 Descending Indianapolis Center
Sat 07:35:19 PM 36.5469 -85.8311 240° Southwest 377 434 17,000 -2,361 Descending Indianapolis Center
Sat 07:36:20 PM 36.4933 -85.9447 240° Southwest 378 435 14,600 -2,380 Descending Indianapolis Center
Sat 07:37:20 PM 36.4408 -86.0528 239° Southwest 363 418 12,200 -2,529 Descending Indianapolis Center
Sat 07:38:21 PM 36.3897 -86.1744 242° Southwest 351 404 9,500 -2,440 Descending Indianapolis Center
Sat 07:38:51 PM 36.3742 -86.2142 244° Southwest 347 399 8,500 -2,242 Descending Memphis Center
Sat 07:39:52 PM 36.3375 -86.3025 243° Southwest 298 343 6,100 -1,672 Descending Memphis Center
Sat 07:40:53 PM 36.3056 -86.3825 244° Southwest 267 307 5,100 -1,082 Descending Memphis Center
Sat 07:41:54 PM 36.2706 -86.4653 242° Southwest 266 306 3,900 -1,377 Descending Memphis Center
Sat 07:42:55 PM 36.2392 -86.5431 243° Southwest 253 291 2,300 -934 Descending Memphis Center
Sat 07:43:56 PM 36.2158 -86.5992 243° Southwest 188 216 2,000 -295 Descending Memphis Center
Sat 07:44:57 PM 36.1861 -86.6375 226° Southwest 167 192 1,700 -443 Descending Memphis Center
Sat 07:45:58 PM 36.1544 -86.6511 199° South 133 153 1,100 -492 Descending Memphis Center
Sat 07:46:59 PM 36.1281 -86.6619 198° South 119 137 700 -393 Descending Memphis Center

Login

Don't have an account? Register now (free) for customized features, flight alerts, and more!